Terminal Aerodrome Forecast
Issued by NWS Jackson, KY

Home | Current Version | Previous Version | Text Only | Print | Product List | Glossary On
Versions: 1 2 3 4 5 6 7 8 9 10 11 12 13 14 15 16 17 18 19
811
FTUS43 KJKL 220358 AAA
TAFLOZ
TAF AMD
KLOZ 220358Z 2204/2224 VRB05KT 5SM SHRA BR BKN005 OVC015
     FM220900 04005KT P6SM VCSH OVC015
     FM221600 08006KT 4SM SHRA VCTS OVC010CB
     FM221700 11007KT 3SM SHRA VCTS OVC008CB
     FM222300 03008KT 4SM SHRA VCTS OVC008CB=

USA.gov is the U.S. government's official web portal to all federal, state and local government web resources and services.